sensor_id;sensor_type;location;lat;lon;timestamp;P1;durP1;ratioP1;P2;durP2;ratioP2
6997;SDS011;3539;47.982;12.238;2022-12-26T00:00:50;10.53;;;7.50;;
6997;SDS011;3539;47.982;12.238;2022-12-26T00:03:17;9.87;;;7.30;;
6997;SDS011;3539;47.982;12.238;2022-12-26T00:05:46;12.70;;;8.70;;
6997;SDS011;3539;47.982;12.238;2022-12-26T00:08:12;9.90;;;7.93;;
6997;SDS011;3539;47.982;12.238;2022-12-26T00:10:39;10.87;;;8.70;;
6997;SDS011;3539;47.982;12.238;2022-12-26T00:13:06;11.27;;;7.30;;
6997;SDS011;3539;47.982;12.238;2022-12-26T00:15:33;9.37;;;6.73;;
6997;SDS011;3539;47.982;12.238;2022-12-26T00:18:00;10.60;;;7.97;;
6997;SDS011;3539;47.982;12.238;2022-12-26T00:20:26;10.57;;;8.10;;
6997;SDS011;3539;47.982;12.238;2022-12-26T00:22:55;9.23;;;7.60;;
6997;SDS011;3539;47.982;12.238;2022-12-26T00:25:21;7.83;;;6.97;;
6997;SDS011;3539;47.982;12.238;2022-12-26T00:27:48;9.67;;;7.80;;
6997;SDS011;3539;47.982;12.238;2022-12-26T00:30:15;10.57;;;7.70;;
6997;SDS011;3539;47.982;12.238;2022-12-26T00:32:42;9.97;;;7.77;;
6997;SDS011;3539;47.982;12.238;2022-12-26T00:35:08;10.80;;;8.50;;
6997;SDS011;3539;47.982;12.238;2022-12-26T00:37:35;10.90;;;8.10;;
6997;SDS011;3539;47.982;12.238;2022-12-26T00:40:04;10.17;;;7.83;;
6997;SDS011;3539;47.982;12.238;2022-12-26T00:42:32;12.73;;;8.33;;
6997;SDS011;3539;47.982;12.238;2022-12-26T00:44:59;9.33;;;7.33;;
6997;SDS011;3539;47.982;12.238;2022-12-26T00:47:25;10.37;;;8.00;;
6997;SDS011;3539;47.982;12.238;2022-12-26T00:49:52;8.67;;;7.03;;
6997;SDS011;3539;47.982;12.238;2022-12-26T00:52:19;7.97;;;7.07;;
6997;SDS011;3539;47.982;12.238;2022-12-26T00:54:46;10.40;;;7.77;;
6997;SDS011;3539;47.982;12.238;2022-12-26T00:57:16;9.17;;;7.23;;
6997;SDS011;3539;47.982;12.238;2022-12-26T00:59:43;12.33;;;8.17;;
6997;SDS011;3539;47.982;12.238;2022-12-26T01:02:10;8.10;;;6.57;;
6997;SDS011;3539;47.982;12.238;2022-12-26T01:04:50;10.37;;;7.37;;
6997;SDS011;3539;47.982;12.238;2022-12-26T01:07:19;10.10;;;7.30;;
6997;SDS011;3539;47.982;12.238;2022-12-26T01:09:46;9.50;;;7.53;;
6997;SDS011;3539;47.982;12.238;2022-12-26T01:12:14;8.00;;;6.87;;
6997;SDS011;3539;47.982;12.238;2022-12-26T01:14:41;10.10;;;7.13;;
6997;SDS011;3539;47.982;12.238;2022-12-26T01:17:08;9.60;;;7.07;;
6997;SDS011;3539;47.982;12.238;2022-12-26T01:19:34;9.60;;;7.23;;
6997;SDS011;3539;47.982;12.238;2022-12-26T01:22:04;9.77;;;6.97;;
6997;SDS011;3539;47.982;12.238;2022-12-26T01:24:31;8.83;;;7.07;;
6997;SDS011;3539;47.982;12.238;2022-12-26T01:27:11;8.60;;;6.90;;
6997;SDS011;3539;47.982;12.238;2022-12-26T01:29:39;10.17;;;6.80;;
6997;SDS011;3539;47.982;12.238;2022-12-26T01:32:06;8.77;;;6.50;;
6997;SDS011;3539;47.982;12.238;2022-12-26T01:34:32;7.83;;;6.90;;
6997;SDS011;3539;47.982;12.238;2022-12-26T01:36:59;7.50;;;5.97;;
6997;SDS011;3539;47.982;12.238;2022-12-26T01:39:26;11.20;;;6.30;;
6997;SDS011;3539;47.982;12.238;2022-12-26T01:41:52;9.07;;;6.27;;
6997;SDS011;3539;47.982;12.238;2022-12-26T01:47:22;8.50;;;6.30;;
6997;SDS011;3539;47.982;12.238;2022-12-26T01:49:51;7.87;;;6.57;;
6997;SDS011;3539;47.982;12.238;2022-12-26T01:52:20;8.10;;;6.73;;
6997;SDS011;3539;47.982;12.238;2022-12-26T01:54:49;8.93;;;6.80;;
6997;SDS011;3539;47.982;12.238;2022-12-26T01:57:18;7.90;;;6.43;;
6997;SDS011;3539;47.982;12.238;2022-12-26T01:59:47;9.03;;;7.10;;
6997;SDS011;3539;47.982;12.238;2022-12-26T02:02:17;10.67;;;7.67;;
6997;SDS011;3539;47.982;12.238;2022-12-26T02:04:45;10.20;;;6.40;;
6997;SDS011;3539;47.982;12.238;2022-12-26T02:07:31;8.80;;;6.40;;
6997;SDS011;3539;47.982;12.238;2022-12-26T02:09:59;8.37;;;5.90;;
6997;SDS011;3539;47.982;12.238;2022-12-26T02:12:27;8.77;;;6.37;;
6997;SDS011;3539;47.982;12.238;2022-12-26T02:14:55;7.20;;;5.80;;
6997;SDS011;3539;47.982;12.238;2022-12-26T02:17:24;9.77;;;8.20;;
6997;SDS011;3539;47.982;12.238;2022-12-26T02:19:53;8.83;;;7.00;;
6997;SDS011;3539;47.982;12.238;2022-12-26T02:22:32;7.43;;;6.00;;
6997;SDS011;3539;47.982;12.238;2022-12-26T02:25:21;7.37;;;6.20;;
6997;SDS011;3539;47.982;12.238;2022-12-26T02:28:02;8.93;;;6.57;;
6997;SDS011;3539;47.982;12.238;2022-12-26T02:30:44;9.03;;;5.93;;
6997;SDS011;3539;47.982;12.238;2022-12-26T02:33:16;7.20;;;5.63;;
6997;SDS011;3539;47.982;12.238;2022-12-26T02:35:53;7.37;;;5.67;;
6997;SDS011;3539;47.982;12.238;2022-12-26T02:38:32;6.30;;;5.20;;
6997;SDS011;3539;47.982;12.238;2022-12-26T02:41:05;7.80;;;5.50;;
6997;SDS011;3539;47.982;12.238;2022-12-26T02:43:40;7.27;;;5.80;;
6997;SDS011;3539;47.982;12.238;2022-12-26T02:46:17;7.37;;;5.37;;
6997;SDS011;3539;47.982;12.238;2022-12-26T02:49:09;9.53;;;6.40;;
6997;SDS011;3539;47.982;12.238;2022-12-26T02:51:45;8.37;;;6.13;;
6997;SDS011;3539;47.982;12.238;2022-12-26T02:54:36;7.27;;;5.53;;
6997;SDS011;3539;47.982;12.238;2022-12-26T02:57:22;8.77;;;6.07;;
6997;SDS011;3539;47.982;12.238;2022-12-26T03:00:10;6.43;;;5.43;;
6997;SDS011;3539;47.982;12.238;2022-12-26T03:02:59;6.27;;;5.67;;
6997;SDS011;3539;47.982;12.238;2022-12-26T03:05:46;6.43;;;5.50;;
6997;SDS011;3539;47.982;12.238;2022-12-26T03:08:33;6.60;;;4.97;;
6997;SDS011;3539;47.982;12.238;2022-12-26T03:11:18;6.33;;;5.70;;
6997;SDS011;3539;47.982;12.238;2022-12-26T03:14:05;8.03;;;6.17;;
6997;SDS011;3539;47.982;12.238;2022-12-26T03:16:36;6.63;;;5.50;;
6997;SDS011;3539;47.982;12.238;2022-12-26T03:19:21;7.07;;;5.37;;
6997;SDS011;3539;47.982;12.238;2022-12-26T03:21:51;6.37;;;5.47;;
6997;SDS011;3539;47.982;12.238;2022-12-26T03:24:18;7.27;;;6.03;;
6997;SDS011;3539;47.982;12.238;2022-12-26T03:26:46;6.83;;;5.73;;
6997;SDS011;3539;47.982;12.238;2022-12-26T03:29:14;7.00;;;5.43;;
6997;SDS011;3539;47.982;12.238;2022-12-26T03:32:01;8.40;;;5.87;;
6997;SDS011;3539;47.982;12.238;2022-12-26T03:34:30;8.00;;;5.90;;
6997;SDS011;3539;47.982;12.238;2022-12-26T03:37:00;7.17;;;6.23;;
6997;SDS011;3539;47.982;12.238;2022-12-26T03:40:03;8.17;;;6.27;;
6997;SDS011;3539;47.982;12.238;2022-12-26T03:42:54;7.70;;;6.17;;
6997;SDS011;3539;47.982;12.238;2022-12-26T03:45:43;8.13;;;6.30;;
6997;SDS011;3539;47.982;12.238;2022-12-26T03:48:31;8.43;;;5.93;;
6997;SDS011;3539;47.982;12.238;2022-12-26T03:51:21;7.67;;;6.03;;
6997;SDS011;3539;47.982;12.238;2022-12-26T03:54:08;7.20;;;5.73;;
6997;SDS011;3539;47.982;12.238;2022-12-26T03:57:03;7.07;;;5.73;;
6997;SDS011;3539;47.982;12.238;2022-12-26T03:59:50;8.40;;;5.67;;
6997;SDS011;3539;47.982;12.238;2022-12-26T04:02:35;7.17;;;5.50;;
6997;SDS011;3539;47.982;12.238;2022-12-26T04:05:19;6.97;;;5.40;;
6997;SDS011;3539;47.982;12.238;2022-12-26T04:08:06;7.47;;;5.77;;
6997;SDS011;3539;47.982;12.238;2022-12-26T04:10:56;7.27;;;5.33;;
6997;SDS011;3539;47.982;12.238;2022-12-26T04:13:45;6.90;;;5.57;;
6997;SDS011;3539;47.982;12.238;2022-12-26T04:16:34;7.33;;;5.77;;
6997;SDS011;3539;47.982;12.238;2022-12-26T04:19:25;8.17;;;5.90;;
6997;SDS011;3539;47.982;12.238;2022-12-26T04:22:03;6.33;;;5.30;;
6997;SDS011;3539;47.982;12.238;2022-12-26T04:24:51;6.97;;;5.43;;
6997;SDS011;3539;47.982;12.238;2022-12-26T04:27:39;5.97;;;5.07;;
6997;SDS011;3539;47.982;12.238;2022-12-26T04:30:23;5.90;;;5.20;;
6997;SDS011;3539;47.982;12.238;2022-12-26T04:33:09;6.80;;;5.10;;
6997;SDS011;3539;47.982;12.238;2022-12-26T04:35:56;6.60;;;5.47;;
6997;SDS011;3539;47.982;12.238;2022-12-26T04:38:43;5.77;;;4.90;;
6997;SDS011;3539;47.982;12.238;2022-12-26T04:41:33;6.50;;;5.33;;
6997;SDS011;3539;47.982;12.238;2022-12-26T04:44:18;5.17;;;4.67;;
6997;SDS011;3539;47.982;12.238;2022-12-26T04:46:47;7.37;;;5.37;;
6997;SDS011;3539;47.982;12.238;2022-12-26T04:49:15;7.77;;;4.90;;
6997;SDS011;3539;47.982;12.238;2022-12-26T04:52:02;5.40;;;4.67;;
6997;SDS011;3539;47.982;12.238;2022-12-26T04:54:30;5.60;;;4.93;;
6997;SDS011;3539;47.982;12.238;2022-12-26T04:56:59;6.80;;;5.40;;
6997;SDS011;3539;47.982;12.238;2022-12-26T04:59:25;5.63;;;4.97;;
6997;SDS011;3539;47.982;12.238;2022-12-26T05:01:52;5.23;;;4.60;;
6997;SDS011;3539;47.982;12.238;2022-12-26T05:04:36;7.00;;;4.90;;
6997;SDS011;3539;47.982;12.238;2022-12-26T05:07:24;5.07;;;4.57;;
6997;SDS011;3539;47.982;12.238;2022-12-26T05:10:12;6.20;;;5.10;;
6997;SDS011;3539;47.982;12.238;2022-12-26T05:12:44;7.03;;;4.77;;
6997;SDS011;3539;47.982;12.238;2022-12-26T05:15:11;5.23;;;4.60;;
6997;SDS011;3539;47.982;12.238;2022-12-26T05:17:38;5.63;;;5.00;;
6997;SDS011;3539;47.982;12.238;2022-12-26T05:20:22;6.10;;;4.90;;
6997;SDS011;3539;47.982;12.238;2022-12-26T05:23:09;6.73;;;5.13;;
6997;SDS011;3539;47.982;12.238;2022-12-26T05:25:57;5.97;;;4.50;;
6997;SDS011;3539;47.982;12.238;2022-12-26T05:28:43;5.47;;;4.80;;
6997;SDS011;3539;47.982;12.238;2022-12-26T05:31:10;6.50;;;4.93;;
6997;SDS011;3539;47.982;12.238;2022-12-26T05:33:38;5.77;;;5.10;;
6997;SDS011;3539;47.982;12.238;2022-12-26T05:36:23;6.17;;;5.30;;
6997;SDS011;3539;47.982;12.238;2022-12-26T05:38:51;5.60;;;5.10;;
6997;SDS011;3539;47.982;12.238;2022-12-26T05:41:20;8.70;;;6.20;;
6997;SDS011;3539;47.982;12.238;2022-12-26T05:43:48;6.57;;;5.53;;
6997;SDS011;3539;47.982;12.238;2022-12-26T05:46:15;8.30;;;5.50;;
6997;SDS011;3539;47.982;12.238;2022-12-26T05:48:42;6.53;;;5.67;;
6997;SDS011;3539;47.982;12.238;2022-12-26T05:51:08;5.73;;;4.90;;
6997;SDS011;3539;47.982;12.238;2022-12-26T05:53:35;5.57;;;5.03;;
6997;SDS011;3539;47.982;12.238;2022-12-26T05:56:02;9.03;;;5.80;;
6997;SDS011;3539;47.982;12.238;2022-12-26T05:58:30;6.97;;;5.40;;
6997;SDS011;3539;47.982;12.238;2022-12-26T06:01:04;6.33;;;5.50;;
6997;SDS011;3539;47.982;12.238;2022-12-26T06:03:32;6.57;;;5.83;;
6997;SDS011;3539;47.982;12.238;2022-12-26T06:05:59;8.23;;;5.57;;
6997;SDS011;3539;47.982;12.238;2022-12-26T06:08:26;7.03;;;5.77;;
6997;SDS011;3539;47.982;12.238;2022-12-26T06:10:53;6.73;;;5.73;;
6997;SDS011;3539;47.982;12.238;2022-12-26T06:13:20;7.30;;;5.70;;
6997;SDS011;3539;47.982;12.238;2022-12-26T06:15:46;6.60;;;5.90;;
6997;SDS011;3539;47.982;12.238;2022-12-26T06:18:15;6.37;;;5.37;;
6997;SDS011;3539;47.982;12.238;2022-12-26T06:20:41;6.17;;;5.30;;
6997;SDS011;3539;47.982;12.238;2022-12-26T06:23:08;6.30;;;5.70;;
6997;SDS011;3539;47.982;12.238;2022-12-26T06:25:35;6.53;;;5.83;;
6997;SDS011;3539;47.982;12.238;2022-12-26T06:28:01;7.07;;;5.70;;
6997;SDS011;3539;47.982;12.238;2022-12-26T06:30:28;6.40;;;5.67;;
6997;SDS011;3539;47.982;12.238;2022-12-26T06:32:59;7.87;;;5.43;;
6997;SDS011;3539;47.982;12.238;2022-12-26T06:35:27;8.40;;;6.93;;
6997;SDS011;3539;47.982;12.238;2022-12-26T06:37:54;6.70;;;5.30;;
6997;SDS011;3539;47.982;12.238;2022-12-26T06:40:21;7.80;;;5.93;;
6997;SDS011;3539;47.982;12.238;2022-12-26T06:42:48;6.53;;;5.30;;
6997;SDS011;3539;47.982;12.238;2022-12-26T06:45:14;9.97;;;6.00;;
6997;SDS011;3539;47.982;12.238;2022-12-26T06:47:41;7.27;;;5.73;;
6997;SDS011;3539;47.982;12.238;2022-12-26T06:50:09;7.27;;;5.70;;
6997;SDS011;3539;47.982;12.238;2022-12-26T06:52:37;15.63;;;10.20;;
6997;SDS011;3539;47.982;12.238;2022-12-26T06:55:04;77.83;;;40.83;;
6997;SDS011;3539;47.982;12.238;2022-12-26T06:57:31;16.80;;;12.93;;
6997;SDS011;3539;47.982;12.238;2022-12-26T06:59:57;11.13;;;8.23;;
6997;SDS011;3539;47.982;12.238;2022-12-26T07:02:24;12.77;;;9.20;;
6997;SDS011;3539;47.982;12.238;2022-12-26T07:04:51;18.00;;;12.57;;
6997;SDS011;3539;47.982;12.238;2022-12-26T07:07:17;14.67;;;9.60;;
6997;SDS011;3539;47.982;12.238;2022-12-26T07:09:46;12.97;;;9.50;;
6997;SDS011;3539;47.982;12.238;2022-12-26T07:12:12;10.80;;;8.83;;
6997;SDS011;3539;47.982;12.238;2022-12-26T07:14:39;88.77;;;11.23;;
6997;SDS011;3539;47.982;12.238;2022-12-26T07:17:07;11.70;;;8.60;;
6997;SDS011;3539;47.982;12.238;2022-12-26T07:19:34;15.63;;;11.17;;
6997;SDS011;3539;47.982;12.238;2022-12-26T07:22:01;10.83;;;9.23;;
6997;SDS011;3539;47.982;12.238;2022-12-26T07:24:28;7.47;;;6.47;;
6997;SDS011;3539;47.982;12.238;2022-12-26T07:26:57;10.00;;;6.97;;
6997;SDS011;3539;47.982;12.238;2022-12-26T07:29:23;11.20;;;8.73;;
6997;SDS011;3539;47.982;12.238;2022-12-26T07:31:50;10.10;;;7.47;;
6997;SDS011;3539;47.982;12.238;2022-12-26T07:34:17;9.40;;;6.73;;
6997;SDS011;3539;47.982;12.238;2022-12-26T07:36:44;7.47;;;6.13;;
6997;SDS011;3539;47.982;12.238;2022-12-26T07:39:11;7.53;;;6.10;;
6997;SDS011;3539;47.982;12.238;2022-12-26T07:41:39;7.83;;;6.40;;
6997;SDS011;3539;47.982;12.238;2022-12-26T07:44:25;10.70;;;7.63;;
6997;SDS011;3539;47.982;12.238;2022-12-26T07:46:53;11.43;;;7.83;;
6997;SDS011;3539;47.982;12.238;2022-12-26T07:49:20;8.50;;;6.50;;
6997;SDS011;3539;47.982;12.238;2022-12-26T07:51:49;8.07;;;5.30;;
6997;SDS011;3539;47.982;12.238;2022-12-26T07:54:16;8.13;;;5.90;;
6997;SDS011;3539;47.982;12.238;2022-12-26T07:56:43;6.83;;;5.27;;
6997;SDS011;3539;47.982;12.238;2022-12-26T07:59:11;7.37;;;5.47;;
6997;SDS011;3539;47.982;12.238;2022-12-26T08:01:41;7.43;;;5.83;;
6997;SDS011;3539;47.982;12.238;2022-12-26T08:04:08;8.17;;;6.57;;
6997;SDS011;3539;47.982;12.238;2022-12-26T08:06:35;9.33;;;6.87;;
6997;SDS011;3539;47.982;12.238;2022-12-26T08:09:02;8.77;;;7.63;;
6997;SDS011;3539;47.982;12.238;2022-12-26T08:11:30;11.00;;;8.40;;
6997;SDS011;3539;47.982;12.238;2022-12-26T08:13:58;10.10;;;8.27;;
6997;SDS011;3539;47.982;12.238;2022-12-26T08:16:25;10.70;;;7.97;;
6997;SDS011;3539;47.982;12.238;2022-12-26T08:18:53;9.10;;;6.60;;
6997;SDS011;3539;47.982;12.238;2022-12-26T08:21:20;7.93;;;6.20;;
6997;SDS011;3539;47.982;12.238;2022-12-26T08:23:46;6.67;;;5.40;;
6997;SDS011;3539;47.982;12.238;2022-12-26T08:26:13;7.50;;;5.10;;
6997;SDS011;3539;47.982;12.238;2022-12-26T08:28:46;7.60;;;5.97;;
6997;SDS011;3539;47.982;12.238;2022-12-26T08:31:13;6.20;;;5.43;;
6997;SDS011;3539;47.982;12.238;2022-12-26T08:33:40;8.03;;;6.40;;
6997;SDS011;3539;47.982;12.238;2022-12-26T08:36:09;8.67;;;5.67;;
6997;SDS011;3539;47.982;12.238;2022-12-26T08:38:37;7.07;;;5.93;;
6997;SDS011;3539;47.982;12.238;2022-12-26T08:41:04;6.97;;;6.27;;
6997;SDS011;3539;47.982;12.238;2022-12-26T08:43:31;8.73;;;7.70;;
6997;SDS011;3539;47.982;12.238;2022-12-26T08:45:58;24.63;;;14.90;;
6997;SDS011;3539;47.982;12.238;2022-12-26T08:48:25;18.20;;;13.67;;
6997;SDS011;3539;47.982;12.238;2022-12-26T08:50:56;25.90;;;17.40;;
6997;SDS011;3539;47.982;12.238;2022-12-26T08:53:25;13.90;;;10.23;;
6997;SDS011;3539;47.982;12.238;2022-12-26T08:55:53;10.77;;;7.10;;
6997;SDS011;3539;47.982;12.238;2022-12-26T08:58:20;7.20;;;6.00;;
6997;SDS011;3539;47.982;12.238;2022-12-26T09:00:47;10.50;;;7.23;;
6997;SDS011;3539;47.982;12.238;2022-12-26T09:03:14;13.17;;;9.07;;
6997;SDS011;3539;47.982;12.238;2022-12-26T09:05:40;8.67;;;6.93;;
6997;SDS011;3539;47.982;12.238;2022-12-26T09:08:10;15.17;;;10.93;;
6997;SDS011;3539;47.982;12.238;2022-12-26T09:10:38;14.13;;;10.70;;
6997;SDS011;3539;47.982;12.238;2022-12-26T09:13:07;11.80;;;9.07;;
6997;SDS011;3539;47.982;12.238;2022-12-26T09:15:34;23.87;;;18.33;;
6997;SDS011;3539;47.982;12.238;2022-12-26T09:18:01;11.37;;;8.73;;
6997;SDS011;3539;47.982;12.238;2022-12-26T09:20:28;9.70;;;8.27;;
6997;SDS011;3539;47.982;12.238;2022-12-26T09:22:54;9.93;;;7.80;;
6997;SDS011;3539;47.982;12.238;2022-12-26T09:25:22;10.27;;;7.40;;
6997;SDS011;3539;47.982;12.238;2022-12-26T09:27:51;9.83;;;7.93;;
6997;SDS011;3539;47.982;12.238;2022-12-26T09:30:19;8.33;;;6.90;;
6997;SDS011;3539;47.982;12.238;2022-12-26T09:32:46;17.17;;;12.67;;
6997;SDS011;3539;47.982;12.238;2022-12-26T09:35:13;10.33;;;8.20;;
6997;SDS011;3539;47.982;12.238;2022-12-26T09:37:40;14.27;;;10.27;;
6997;SDS011;3539;47.982;12.238;2022-12-26T09:40:07;10.30;;;8.40;;
6997;SDS011;3539;47.982;12.238;2022-12-26T09:42:46;10.93;;;7.20;;
6997;SDS011;3539;47.982;12.238;2022-12-26T09:45:25;8.83;;;6.50;;
6997;SDS011;3539;47.982;12.238;2022-12-26T09:47:55;8.97;;;5.93;;
6997;SDS011;3539;47.982;12.238;2022-12-26T09:50:26;6.90;;;5.70;;
6997;SDS011;3539;47.982;12.238;2022-12-26T09:52:55;9.27;;;6.67;;
6997;SDS011;3539;47.982;12.238;2022-12-26T09:55:32;9.90;;;7.93;;
6997;SDS011;3539;47.982;12.238;2022-12-26T09:58:05;8.63;;;7.13;;
6997;SDS011;3539;47.982;12.238;2022-12-26T10:00:40;12.33;;;8.43;;
6997;SDS011;3539;47.982;12.238;2022-12-26T10:03:10;10.23;;;7.90;;
6997;SDS011;3539;47.982;12.238;2022-12-26T10:05:38;10.00;;;8.30;;
6997;SDS011;3539;47.982;12.238;2022-12-26T10:08:11;13.00;;;8.97;;
6997;SDS011;3539;47.982;12.238;2022-12-26T10:10:47;7.27;;;6.07;;
6997;SDS011;3539;47.982;12.238;2022-12-26T10:13:21;8.77;;;6.57;;
6997;SDS011;3539;47.982;12.238;2022-12-26T10:15:51;7.47;;;6.30;;
6997;SDS011;3539;47.982;12.238;2022-12-26T10:18:23;7.23;;;5.33;;
6997;SDS011;3539;47.982;12.238;2022-12-26T10:21:02;5.83;;;5.17;;
6997;SDS011;3539;47.982;12.238;2022-12-26T10:23:35;4.07;;;3.40;;
6997;SDS011;3539;47.982;12.238;2022-12-26T10:26:05;4.27;;;3.50;;
6997;SDS011;3539;47.982;12.238;2022-12-26T10:28:38;4.67;;;3.40;;
6997;SDS011;3539;47.982;12.238;2022-12-26T10:31:17;5.27;;;3.20;;
6997;SDS011;3539;47.982;12.238;2022-12-26T10:33:48;4.90;;;3.40;;
6997;SDS011;3539;47.982;12.238;2022-12-26T10:36:21;4.70;;;3.83;;
6997;SDS011;3539;47.982;12.238;2022-12-26T10:38:52;5.67;;;4.50;;
6997;SDS011;3539;47.982;12.238;2022-12-26T10:41:22;6.30;;;4.70;;
6997;SDS011;3539;47.982;12.238;2022-12-26T10:43:53;5.83;;;4.40;;
6997;SDS011;3539;47.982;12.238;2022-12-26T10:49:20;7.13;;;4.30;;
6997;SDS011;3539;47.982;12.238;2022-12-26T10:51:48;6.03;;;4.77;;
6997;SDS011;3539;47.982;12.238;2022-12-26T10:54:16;8.83;;;5.33;;
6997;SDS011;3539;47.982;12.238;2022-12-26T10:56:44;8.47;;;6.07;;
6997;SDS011;3539;47.982;12.238;2022-12-26T10:59:15;5.90;;;5.30;;
6997;SDS011;3539;47.982;12.238;2022-12-26T11:01:43;9.70;;;8.23;;
6997;SDS011;3539;47.982;12.238;2022-12-26T11:04:16;8.87;;;6.57;;
6997;SDS011;3539;47.982;12.238;2022-12-26T11:06:46;7.17;;;5.80;;
6997;SDS011;3539;47.982;12.238;2022-12-26T11:12:03;5.03;;;4.40;;
6997;SDS011;3539;47.982;12.238;2022-12-26T11:14:34;5.13;;;3.83;;
6997;SDS011;3539;47.982;12.238;2022-12-26T11:17:04;4.20;;;3.63;;
6997;SDS011;3539;47.982;12.238;2022-12-26T11:19:33;7.10;;;4.00;;
6997;SDS011;3539;47.982;12.238;2022-12-26T11:25:09;5.87;;;4.27;;
6997;SDS011;3539;47.982;12.238;2022-12-26T11:27:45;6.33;;;4.73;;
6997;SDS011;3539;47.982;12.238;2022-12-26T11:30:25;5.90;;;4.73;;
6997;SDS011;3539;47.982;12.238;2022-12-26T11:33:11;4.60;;;4.07;;
6997;SDS011;3539;47.982;12.238;2022-12-26T11:35:46;5.10;;;3.87;;
6997;SDS011;3539;47.982;12.238;2022-12-26T11:38:16;3.83;;;3.30;;
6997;SDS011;3539;47.982;12.238;2022-12-26T11:40:58;2.87;;;2.60;;
6997;SDS011;3539;47.982;12.238;2022-12-26T11:43:39;3.33;;;2.80;;
6997;SDS011;3539;47.982;12.238;2022-12-26T11:46:07;4.07;;;3.07;;
6997;SDS011;3539;47.982;12.238;2022-12-26T11:48:34;3.40;;;2.97;;
6997;SDS011;3539;47.982;12.238;2022-12-26T11:51:00;3.20;;;2.90;;
6997;SDS011;3539;47.982;12.238;2022-12-26T11:53:27;3.23;;;2.93;;
6997;SDS011;3539;47.982;12.238;2022-12-26T11:55:57;4.70;;;3.10;;
6997;SDS011;3539;47.982;12.238;2022-12-26T11:58:25;3.33;;;3.00;;
6997;SDS011;3539;47.982;12.238;2022-12-26T12:01:04;2.83;;;2.50;;
6997;SDS011;3539;47.982;12.238;2022-12-26T12:03:36;3.93;;;3.00;;
6997;SDS011;3539;47.982;12.238;2022-12-26T12:06:11;4.30;;;3.07;;
6997;SDS011;3539;47.982;12.238;2022-12-26T12:08:45;2.77;;;2.57;;
6997;SDS011;3539;47.982;12.238;2022-12-26T12:11:24;3.00;;;2.80;;
6997;SDS011;3539;47.982;12.238;2022-12-26T12:14:07;2.67;;;2.47;;
6997;SDS011;3539;47.982;12.238;2022-12-26T12:16:53;3.67;;;2.67;;
6997;SDS011;3539;47.982;12.238;2022-12-26T12:19:37;3.13;;;2.67;;
6997;SDS011;3539;47.982;12.238;2022-12-26T12:22:15;3.00;;;2.70;;
6997;SDS011;3539;47.982;12.238;2022-12-26T12:24:59;4.27;;;3.00;;
6997;SDS011;3539;47.982;12.238;2022-12-26T12:27:34;3.43;;;2.87;;
6997;SDS011;3539;47.982;12.238;2022-12-26T12:30:08;3.87;;;2.90;;
6997;SDS011;3539;47.982;12.238;2022-12-26T12:32:44;3.70;;;2.93;;
6997;SDS011;3539;47.982;12.238;2022-12-26T12:35:30;4.03;;;3.40;;
6997;SDS011;3539;47.982;12.238;2022-12-26T12:40:56;4.40;;;3.47;;
6997;SDS011;3539;47.982;12.238;2022-12-26T12:43:28;5.90;;;3.60;;
6997;SDS011;3539;47.982;12.238;2022-12-26T12:46:05;6.00;;;3.90;;
6997;SDS011;3539;47.982;12.238;2022-12-26T12:48:43;3.90;;;3.50;;
6997;SDS011;3539;47.982;12.238;2022-12-26T12:51:18;4.00;;;2.87;;
6997;SDS011;3539;47.982;12.238;2022-12-26T12:53:55;3.80;;;2.63;;
6997;SDS011;3539;47.982;12.238;2022-12-26T12:56:30;2.93;;;2.47;;
6997;SDS011;3539;47.982;12.238;2022-12-26T12:59:03;2.83;;;2.30;;
6997;SDS011;3539;47.982;12.238;2022-12-26T13:01:34;3.03;;;2.70;;
6997;SDS011;3539;47.982;12.238;2022-12-26T13:04:08;4.30;;;2.80;;
6997;SDS011;3539;47.982;12.238;2022-12-26T13:06:38;2.70;;;2.43;;
6997;SDS011;3539;47.982;12.238;2022-12-26T13:09:11;3.20;;;2.90;;
6997;SDS011;3539;47.982;12.238;2022-12-26T13:11:42;3.07;;;2.77;;
6997;SDS011;3539;47.982;12.238;2022-12-26T13:14:13;2.90;;;2.60;;
6997;SDS011;3539;47.982;12.238;2022-12-26T13:16:42;3.40;;;3.10;;
6997;SDS011;3539;47.982;12.238;2022-12-26T13:19:15;3.70;;;2.73;;
6997;SDS011;3539;47.982;12.238;2022-12-26T13:21:43;4.17;;;2.30;;
6997;SDS011;3539;47.982;12.238;2022-12-26T13:24:12;3.30;;;2.50;;
6997;SDS011;3539;47.982;12.238;2022-12-26T13:26:51;3.20;;;2.90;;
6997;SDS011;3539;47.982;12.238;2022-12-26T13:29:27;14.53;;;6.87;;
6997;SDS011;3539;47.982;12.238;2022-12-26T13:32:00;8.33;;;4.60;;
6997;SDS011;3539;47.982;12.238;2022-12-26T13:34:30;9.43;;;5.10;;
6997;SDS011;3539;47.982;12.238;2022-12-26T13:36:57;6.17;;;4.07;;
6997;SDS011;3539;47.982;12.238;2022-12-26T13:39:37;6.63;;;4.13;;
6997;SDS011;3539;47.982;12.238;2022-12-26T13:42:14;5.37;;;3.60;;
6997;SDS011;3539;47.982;12.238;2022-12-26T13:54:16;5.40;;;3.90;;
6997;SDS011;3539;47.982;12.238;2022-12-26T13:56:53;3.77;;;3.30;;
6997;SDS011;3539;47.982;12.238;2022-12-26T13:59:35;4.60;;;3.27;;
6997;SDS011;3539;47.982;12.238;2022-12-26T14:02:12;4.87;;;3.00;;
6997;SDS011;3539;47.982;12.238;2022-12-26T14:04:46;3.20;;;2.90;;
6997;SDS011;3539;47.982;12.238;2022-12-26T14:07:21;3.60;;;2.70;;
6997;SDS011;3539;47.982;12.238;2022-12-26T14:09:55;3.23;;;2.30;;
6997;SDS011;3539;47.982;12.238;2022-12-26T14:12:44;4.37;;;2.87;;
6997;SDS011;3539;47.982;12.238;2022-12-26T14:15:22;2.57;;;2.27;;
6997;SDS011;3539;47.982;12.238;2022-12-26T14:17:57;4.37;;;2.30;;
6997;SDS011;3539;47.982;12.238;2022-12-26T14:20:38;3.17;;;2.30;;
6997;SDS011;3539;47.982;12.238;2022-12-26T14:23:14;2.37;;;2.17;;
6997;SDS011;3539;47.982;12.238;2022-12-26T14:25:50;4.53;;;2.40;;
6997;SDS011;3539;47.982;12.238;2022-12-26T14:28:22;3.87;;;2.33;;
6997;SDS011;3539;47.982;12.238;2022-12-26T14:30:53;3.20;;;2.57;;
6997;SDS011;3539;47.982;12.238;2022-12-26T14:33:27;3.93;;;2.40;;
6997;SDS011;3539;47.982;12.238;2022-12-26T14:36:01;3.70;;;2.40;;
6997;SDS011;3539;47.982;12.238;2022-12-26T14:38:39;3.47;;;2.77;;
6997;SDS011;3539;47.982;12.238;2022-12-26T14:41:12;2.90;;;2.60;;
6997;SDS011;3539;47.982;12.238;2022-12-26T14:44:08;5.20;;;3.27;;
6997;SDS011;3539;47.982;12.238;2022-12-26T14:46:54;4.70;;;4.27;;
6997;SDS011;3539;47.982;12.238;2022-12-26T14:49:23;4.10;;;3.17;;
6997;SDS011;3539;47.982;12.238;2022-12-26T14:55:00;3.57;;;2.90;;
6997;SDS011;3539;47.982;12.238;2022-12-26T15:04:28;5.77;;;3.57;;
6997;SDS011;3539;47.982;12.238;2022-12-26T15:10:31;3.50;;;2.93;;
6997;SDS011;3539;47.982;12.238;2022-12-26T15:13:14;3.93;;;3.00;;
6997;SDS011;3539;47.982;12.238;2022-12-26T15:16:07;3.30;;;2.40;;
6997;SDS011;3539;47.982;12.238;2022-12-26T15:19:08;3.00;;;2.70;;
6997;SDS011;3539;47.982;12.238;2022-12-26T15:25:21;2.80;;;2.50;;
6997;SDS011;3539;47.982;12.238;2022-12-26T15:30:58;3.80;;;2.23;;
6997;SDS011;3539;47.982;12.238;2022-12-26T15:33:42;4.70;;;2.50;;
6997;SDS011;3539;47.982;12.238;2022-12-26T15:36:15;2.97;;;2.77;;
6997;SDS011;3539;47.982;12.238;2022-12-26T15:38:47;3.03;;;2.50;;
6997;SDS011;3539;47.982;12.238;2022-12-26T15:41:27;3.07;;;2.77;;
6997;SDS011;3539;47.982;12.238;2022-12-26T15:44:02;3.07;;;2.77;;
6997;SDS011;3539;47.982;12.238;2022-12-26T15:46:49;4.07;;;3.47;;
6997;SDS011;3539;47.982;12.238;2022-12-26T15:49:27;5.20;;;4.07;;
6997;SDS011;3539;47.982;12.238;2022-12-26T15:52:00;4.83;;;3.40;;
6997;SDS011;3539;47.982;12.238;2022-12-26T15:57:25;3.20;;;2.60;;
6997;SDS011;3539;47.982;12.238;2022-12-26T16:00:03;5.57;;;3.73;;
6997;SDS011;3539;47.982;12.238;2022-12-26T16:02:37;3.00;;;2.37;;
6997;SDS011;3539;47.982;12.238;2022-12-26T16:07:52;3.43;;;2.10;;
6997;SDS011;3539;47.982;12.238;2022-12-26T16:10:27;1.57;;;1.47;;
6997;SDS011;3539;47.982;12.238;2022-12-26T16:12:58;3.00;;;2.00;;
6997;SDS011;3539;47.982;12.238;2022-12-26T16:15:28;1.93;;;1.70;;
6997;SDS011;3539;47.982;12.238;2022-12-26T16:18:11;1.33;;;1.23;;
6997;SDS011;3539;47.982;12.238;2022-12-26T16:20:39;1.93;;;1.40;;
6997;SDS011;3539;47.982;12.238;2022-12-26T16:23:24;3.90;;;2.17;;